Terminal Aerodrome Forecast
Issued by NWS Bismarck, ND

Home | Current Version | Previous Version | Graphics & Text | Print | Product List | Glossary On
Versions: 1 2 3 4 5 6 7 8 9 10 11 12 13 14 15 16
000
FTUS43 KBIS 170900 AAA
TAFISN
TAF AMD
KISN 170913Z 1709/1806 35009KT P6SM SCT012
      TEMPO 1709/1712 BKN012
     FM171200 35010KT P6SM BKN012
     FM171700 01007KT P6SM SCT015 SCT025
     FM172100 09006KT P6SM SCT030=

USA.gov is the U.S. government's official web portal to all federal, state and local government web resources and services.